createdAt,value
2022-12-26T00:01:41.372Z,100.00
2022-12-26T00:04:49.740Z,100.00
2022-12-26T00:06:41.289Z,100.00
2022-12-26T00:09:11.430Z,100.00
2022-12-26T00:11:40.886Z,100.00
2022-12-26T00:14:12.526Z,100.00
2022-12-26T00:16:43.786Z,100.00
2022-12-26T00:19:13.391Z,100.00
2022-12-26T00:21:43.202Z,100.00
2022-12-26T00:24:12.682Z,100.00
2022-12-26T00:26:42.294Z,100.00
2022-12-26T00:29:11.478Z,100.00
2022-12-26T00:31:41.078Z,100.00
2022-12-26T00:34:11.128Z,100.00
2022-12-26T00:36:40.403Z,100.00
2022-12-26T00:39:10.296Z,100.00
2022-12-26T00:41:39.617Z,100.00
2022-12-26T00:44:08.823Z,100.00
2022-12-26T00:46:38.129Z,100.00
2022-12-26T00:49:07.796Z,100.00
2022-12-26T00:51:37.228Z,100.00
2022-12-26T00:54:07.124Z,100.00
2022-12-26T00:56:36.447Z,100.00
2022-12-26T01:01:46.613Z,100.00
2022-12-26T01:04:16.174Z,100.00
2022-12-26T01:06:45.625Z,100.00
2022-12-26T01:09:15.256Z,100.00
2022-12-26T01:11:44.786Z,100.00
2022-12-26T01:14:20.430Z,100.00
2022-12-26T01:16:49.871Z,100.00
2022-12-26T01:19:19.163Z,100.00
2022-12-26T01:21:48.389Z,100.00
2022-12-26T01:24:17.988Z,100.00
2022-12-26T01:26:47.878Z,100.00
2022-12-26T01:29:17.392Z,100.00
2022-12-26T01:31:46.690Z,100.00
2022-12-26T01:34:16.428Z,100.00
2022-12-26T01:36:45.655Z,100.00
2022-12-26T01:39:14.861Z,100.00
2022-12-26T01:41:44.100Z,100.00
2022-12-26T01:44:49.984Z,100.00
2022-12-26T01:47:21.251Z,100.00
2022-12-26T01:49:54.013Z,100.00
2022-12-26T01:52:26.414Z,100.00
2022-12-26T01:54:56.079Z,100.00
2022-12-26T01:57:28.494Z,100.00
2022-12-26T01:59:59.657Z,100.00
2022-12-26T02:02:30.364Z,100.00
2022-12-26T02:05:17.313Z,100.00
2022-12-26T02:07:47.652Z,100.00
2022-12-26T02:10:20.037Z,100.00
2022-12-26T02:12:49.929Z,100.00
2022-12-26T02:15:19.548Z,100.00
2022-12-26T02:17:48.929Z,100.00
2022-12-26T02:20:32.913Z,100.00
2022-12-26T02:23:08.233Z,100.00
2022-12-26T02:26:00.152Z,100.00
2022-12-26T02:28:51.115Z,100.00
2022-12-26T02:31:49.161Z,100.00
2022-12-26T02:34:21.803Z,100.00
2022-12-26T02:37:17.887Z,100.00
2022-12-26T02:40:12.569Z,100.00
2022-12-26T02:42:54.062Z,100.00
2022-12-26T02:45:50.977Z,100.00
2022-12-26T02:48:42.796Z,99.96
2022-12-26T02:51:33.314Z,100.00
2022-12-26T02:54:26.718Z,100.00
2022-12-26T02:57:16.083Z,100.00
2022-12-26T03:00:17.961Z,100.00
2022-12-26T03:03:15.122Z,100.00
2022-12-26T03:06:19.563Z,100.00
2022-12-26T03:09:15.643Z,100.00
2022-12-26T03:12:05.112Z,100.00
2022-12-26T03:14:52.593Z,100.00
2022-12-26T03:17:28.007Z,100.00
2022-12-26T03:20:20.254Z,100.00
2022-12-26T03:22:58.191Z,100.00
2022-12-26T03:25:57.943Z,100.00
2022-12-26T03:28:27.701Z,100.00
2022-12-26T03:30:59.535Z,100.00
2022-12-26T03:33:52.145Z,100.00
2022-12-26T03:36:52.299Z,100.00
2022-12-26T03:40:00.893Z,100.00
2022-12-26T03:43:02.991Z,100.00
2022-12-26T03:46:05.580Z,100.00
2022-12-26T03:48:55.714Z,100.00
2022-12-26T03:52:04.093Z,100.00
2022-12-26T03:54:58.504Z,100.00
2022-12-26T03:57:49.400Z,100.00
2022-12-26T04:00:37.403Z,100.00
2022-12-26T04:03:29.856Z,100.00
2022-12-26T04:06:20.423Z,100.00
2022-12-26T04:09:16.399Z,100.00
2022-12-26T04:12:04.528Z,100.00
2022-12-26T04:15:12.262Z,100.00
2022-12-26T04:18:16.568Z,100.00
2022-12-26T04:21:07.193Z,100.00
2022-12-26T04:24:02.410Z,100.00
2022-12-26T04:26:52.126Z,100.00
2022-12-26T04:29:39.586Z,100.00
2022-12-26T04:32:29.884Z,100.00
2022-12-26T04:35:23.299Z,100.00
2022-12-26T04:38:11.241Z,100.00
2022-12-26T04:41:01.867Z,100.00
2022-12-26T04:43:51.631Z,100.00
2022-12-26T04:46:22.833Z,100.00
2022-12-26T04:49:12.440Z,99.95
2022-12-26T04:51:42.049Z,99.94
2022-12-26T04:54:11.332Z,99.69
2022-12-26T04:56:40.599Z,99.46
2022-12-26T04:59:09.834Z,99.49
2022-12-26T05:01:56.593Z,99.68
2022-12-26T05:04:43.752Z,99.56
2022-12-26T05:07:37.397Z,99.52
2022-12-26T05:10:09.068Z,99.65
2022-12-26T05:12:38.302Z,99.68
2022-12-26T05:15:08.405Z,99.72
2022-12-26T05:17:55.888Z,99.58
2022-12-26T05:20:43.335Z,99.57
2022-12-26T05:23:45.884Z,99.58
2022-12-26T05:26:38.449Z,99.56
2022-12-26T05:29:08.487Z,99.41
2022-12-26T05:31:38.366Z,99.38
2022-12-26T05:34:15.497Z,99.36
2022-12-26T05:36:53.054Z,99.50
2022-12-26T05:39:22.568Z,99.53
2022-12-26T05:41:51.887Z,99.38
2022-12-26T05:44:21.394Z,99.51
2022-12-26T05:46:51.131Z,99.52
2022-12-26T05:49:20.770Z,99.48
2022-12-26T05:51:51.245Z,99.30
2022-12-26T05:54:21.077Z,99.38
2022-12-26T05:56:50.352Z,99.48
2022-12-26T05:59:19.645Z,99.50
2022-12-26T06:01:49.330Z,99.42
2022-12-26T06:04:18.733Z,99.18
2022-12-26T06:06:48.023Z,99.24
2022-12-26T06:09:17.519Z,99.22
2022-12-26T06:11:49.064Z,98.93
2022-12-26T06:14:18.400Z,98.82
2022-12-26T06:16:48.097Z,98.63
2022-12-26T06:19:17.680Z,98.72
2022-12-26T06:21:46.968Z,98.70
2022-12-26T06:24:16.564Z,98.39
2022-12-26T06:26:45.838Z,98.59
2022-12-26T06:29:15.050Z,98.44
2022-12-26T06:31:44.380Z,98.55
2022-12-26T06:34:14.207Z,98.56
2022-12-26T06:36:43.491Z,98.53
2022-12-26T06:39:13.081Z,98.27
2022-12-26T06:41:42.657Z,98.31
2022-12-26T06:44:17.886Z,98.26
2022-12-26T06:46:43.611Z,97.78
2022-12-26T06:49:13.066Z,97.75
2022-12-26T06:51:44.061Z,97.92
2022-12-26T06:54:13.279Z,97.87
2022-12-26T06:56:42.551Z,97.35
2022-12-26T06:59:12.742Z,97.22
2022-12-26T07:01:42.207Z,97.27
2022-12-26T07:04:13.462Z,97.18
2022-12-26T07:06:42.827Z,97.21
2022-12-26T07:09:14.939Z,96.93
2022-12-26T07:11:46.543Z,96.82
2022-12-26T07:14:16.759Z,96.57
2022-12-26T07:16:46.617Z,96.42
2022-12-26T07:19:16.795Z,96.61
2022-12-26T07:21:46.407Z,96.20
2022-12-26T07:24:18.546Z,95.77
2022-12-26T07:26:49.045Z,96.05
2022-12-26T07:29:18.706Z,95.56
2022-12-26T07:31:48.250Z,95.55
2022-12-26T07:34:18.235Z,94.89
2022-12-26T07:36:47.513Z,94.70
2022-12-26T07:39:16.907Z,94.17
2022-12-26T07:41:58.287Z,94.29
2022-12-26T07:44:29.407Z,93.66
2022-12-26T07:46:59.748Z,92.72
2022-12-26T07:49:29.525Z,93.12
2022-12-26T07:51:59.141Z,93.12
2022-12-26T07:54:29.977Z,92.82
2022-12-26T07:57:21.841Z,92.29
2022-12-26T07:59:31.009Z,92.82
2022-12-26T08:02:02.210Z,93.52
2022-12-26T08:04:33.848Z,92.91
2022-12-26T08:07:03.645Z,92.43
2022-12-26T08:09:32.892Z,92.38
2022-12-26T08:12:02.163Z,92.76
2022-12-26T08:14:31.454Z,92.28
2022-12-26T08:17:01.248Z,92.18
2022-12-26T08:19:30.623Z,91.80
2022-12-26T08:22:00.496Z,91.74
2022-12-26T08:24:30.143Z,91.09
2022-12-26T08:26:59.909Z,90.96
2022-12-26T08:29:29.203Z,90.41
2022-12-26T08:31:58.576Z,90.27
2022-12-26T08:34:36.050Z,89.78
2022-12-26T08:37:05.920Z,89.97
2022-12-26T08:39:35.092Z,90.27
2022-12-26T08:42:04.466Z,89.96
2022-12-26T08:44:33.680Z,90.29
2022-12-26T08:47:03.201Z,90.48
2022-12-26T08:49:33.475Z,89.89
2022-12-26T08:52:02.920Z,90.08
2022-12-26T08:54:32.738Z,90.04
2022-12-26T08:57:02.326Z,90.01
2022-12-26T08:59:31.834Z,89.82
2022-12-26T09:02:01.176Z,89.28
2022-12-26T09:04:30.700Z,88.21
2022-12-26T09:06:59.904Z,88.75
2022-12-26T09:09:31.517Z,87.63
2022-12-26T09:12:00.697Z,87.83
2022-12-26T09:14:30.108Z,88.25
2022-12-26T09:16:59.362Z,88.44
2022-12-26T09:19:31.180Z,88.26
2022-12-26T09:22:18.715Z,89.66
2022-12-26T09:24:48.785Z,89.00
2022-12-26T09:27:18.089Z,89.82
2022-12-26T09:29:47.663Z,92.15
2022-12-26T09:32:17.229Z,92.54
2022-12-26T09:34:46.718Z,93.31
2022-12-26T09:37:15.914Z,93.84
2022-12-26T09:39:45.811Z,94.31
2022-12-26T09:42:18.171Z,94.57
2022-12-26T09:45:02.956Z,94.21
2022-12-26T09:47:34.526Z,94.68
2022-12-26T09:50:19.106Z,94.04
2022-12-26T09:53:03.387Z,94.02
2022-12-26T09:55:47.478Z,93.49
2022-12-26T09:58:34.897Z,92.73
2022-12-26T10:01:21.600Z,93.30
2022-12-26T10:03:54.018Z,93.14
2022-12-26T10:06:28.886Z,93.03
2022-12-26T10:09:17.963Z,92.10
2022-12-26T10:12:09.046Z,92.61
2022-12-26T10:15:02.017Z,92.05
2022-12-26T10:17:35.497Z,91.47
2022-12-26T10:20:20.675Z,91.53
2022-12-26T10:23:02.556Z,90.83
2022-12-26T10:25:53.137Z,90.76
2022-12-26T10:28:28.803Z,90.60
2022-12-26T10:31:00.540Z,88.42
2022-12-26T10:33:48.443Z,86.46
2022-12-26T10:36:24.113Z,86.74
2022-12-26T10:38:55.322Z,86.98
2022-12-26T10:41:30.827Z,87.62
2022-12-26T10:44:00.237Z,86.13
2022-12-26T10:46:45.154Z,86.12
2022-12-26T10:49:16.343Z,86.51
2022-12-26T10:51:46.084Z,87.06
2022-12-26T10:54:18.448Z,86.73
2022-12-26T10:56:50.075Z,85.08
2022-12-26T10:59:28.340Z,85.33
2022-12-26T11:02:03.384Z,86.50
2022-12-26T11:05:13.162Z,86.10
2022-12-26T11:07:01.270Z,86.67
2022-12-26T11:09:36.454Z,85.72
2022-12-26T11:12:07.151Z,84.08
2022-12-26T11:14:42.023Z,85.17
2022-12-26T11:17:14.178Z,84.17
2022-12-26T11:19:45.321Z,85.56
2022-12-26T11:22:30.853Z,83.99
2022-12-26T11:25:21.405Z,84.45
2022-12-26T11:27:54.199Z,83.33
2022-12-26T11:30:29.209Z,82.68
2022-12-26T11:33:14.554Z,84.17
2022-12-26T11:35:53.322Z,83.87
2022-12-26T11:38:42.385Z,83.15
2022-12-26T11:41:30.159Z,83.68
2022-12-26T11:44:14.124Z,82.83
2022-12-26T11:47:04.423Z,83.06
2022-12-26T11:49:41.186Z,83.41
2022-12-26T11:52:47.266Z,83.35
2022-12-26T11:55:38.081Z,81.84
2022-12-26T11:58:13.233Z,81.77
2022-12-26T12:00:55.697Z,82.12
2022-12-26T12:03:38.594Z,82.03
2022-12-26T12:06:23.585Z,80.27
2022-12-26T12:09:19.472Z,80.66
2022-12-26T12:11:57.841Z,80.06
2022-12-26T12:14:36.585Z,80.56
2022-12-26T12:17:32.383Z,79.98
2022-12-26T12:20:23.056Z,79.00
2022-12-26T12:23:10.449Z,80.59
2022-12-26T12:25:42.881Z,80.00
2022-12-26T12:28:40.299Z,80.89
2022-12-26T12:31:46.195Z,81.15
2022-12-26T12:34:27.862Z,80.49
2022-12-26T12:37:25.902Z,80.58
2022-12-26T12:40:17.639Z,81.18
2022-12-26T12:43:08.127Z,79.69
2022-12-26T12:45:40.967Z,78.88
2022-12-26T12:48:16.384Z,78.09
2022-12-26T12:50:56.725Z,79.46
2022-12-26T12:53:48.840Z,79.47
2022-12-26T12:56:37.105Z,78.97
2022-12-26T12:59:16.209Z,78.72
2022-12-26T13:01:47.955Z,78.79
2022-12-26T13:04:26.157Z,78.91
2022-12-26T13:06:57.989Z,80.19
2022-12-26T13:09:35.867Z,80.57
2022-12-26T13:12:12.143Z,80.79
2022-12-26T13:14:59.795Z,79.83
2022-12-26T13:17:33.047Z,79.83
2022-12-26T13:20:07.593Z,80.16
2022-12-26T13:22:47.592Z,79.18
2022-12-26T13:25:17.269Z,78.73
2022-12-26T13:27:48.200Z,78.13
2022-12-26T13:30:18.738Z,78.86
2022-12-26T13:32:48.103Z,76.73
2022-12-26T13:35:52.486Z,74.88
2022-12-26T13:38:22.798Z,75.17
2022-12-26T13:41:02.069Z,75.11
2022-12-26T13:43:50.695Z,76.76
2022-12-26T13:46:38.639Z,75.97
2022-12-26T13:49:11.382Z,76.28
2022-12-26T13:51:44.051Z,74.98
2022-12-26T13:54:15.372Z,76.25
2022-12-26T13:56:46.711Z,76.25
2022-12-26T13:59:19.138Z,76.49
2022-12-26T14:02:01.589Z,77.28
2022-12-26T14:04:32.674Z,77.99
2022-12-26T14:07:23.185Z,78.28
2022-12-26T14:10:13.754Z,78.13
2022-12-26T14:13:04.186Z,79.05
2022-12-26T14:15:54.583Z,79.19
2022-12-26T14:18:45.661Z,78.26
2022-12-26T14:21:35.965Z,77.02
2022-12-26T14:24:26.887Z,76.51
2022-12-26T14:27:14.582Z,76.31
2022-12-26T14:29:59.230Z,76.38
2022-12-26T14:32:57.330Z,74.14
2022-12-26T14:35:37.517Z,74.99
2022-12-26T14:38:32.880Z,73.37
2022-12-26T14:41:31.951Z,73.65
2022-12-26T14:44:19.099Z,73.00
2022-12-26T14:46:54.502Z,72.55
2022-12-26T14:49:36.376Z,72.15
2022-12-26T14:52:27.254Z,72.57
2022-12-26T14:54:57.304Z,72.06
2022-12-26T14:57:49.636Z,74.11
2022-12-26T15:00:27.847Z,72.19
2022-12-26T15:03:03.256Z,72.00
2022-12-26T15:05:40.390Z,74.14
2022-12-26T15:08:31.144Z,73.41
2022-12-26T15:11:20.899Z,73.86
2022-12-26T15:14:12.105Z,73.39
2022-12-26T15:16:50.160Z,73.54
2022-12-26T15:19:48.297Z,73.13
2022-12-26T15:22:28.883Z,73.68
2022-12-26T15:25:19.575Z,73.35
2022-12-26T15:28:26.564Z,73.83
2022-12-26T15:31:11.175Z,73.24
2022-12-26T15:33:49.607Z,74.34
2022-12-26T15:36:22.048Z,74.49
2022-12-26T15:39:03.254Z,75.20
2022-12-26T15:41:38.872Z,75.50
2022-12-26T15:44:17.244Z,75.55
2022-12-26T15:47:05.098Z,76.25
2022-12-26T15:49:43.176Z,76.97
2022-12-26T15:52:36.814Z,76.44
2022-12-26T15:55:30.099Z,77.10
2022-12-26T15:58:08.797Z,77.63
2022-12-26T16:00:41.250Z,77.47
2022-12-26T16:03:31.808Z,78.32
2022-12-26T16:06:19.124Z,78.51
2022-12-26T16:08:57.293Z,78.70
2022-12-26T16:11:31.978Z,79.42
2022-12-26T16:14:03.924Z,80.00
2022-12-26T16:16:38.361Z,81.06
2022-12-26T16:19:22.826Z,81.90
2022-12-26T16:22:15.782Z,83.12
2022-12-26T16:24:44.288Z,83.29
2022-12-26T16:27:19.072Z,84.04
2022-12-26T16:30:11.279Z,84.07
2022-12-26T16:32:40.632Z,84.66
2022-12-26T16:35:13.431Z,84.87
2022-12-26T16:37:43.827Z,84.67
2022-12-26T16:40:19.103Z,85.24
2022-12-26T16:43:03.249Z,85.84
2022-12-26T16:45:35.845Z,86.01
2022-12-26T16:48:09.665Z,85.78
2022-12-26T16:50:42.371Z,86.10
2022-12-26T16:53:14.083Z,86.39
2022-12-26T16:55:49.400Z,86.86
2022-12-26T16:58:24.147Z,87.00
2022-12-26T17:00:56.548Z,86.82
2022-12-26T17:03:29.072Z,85.95
2022-12-26T17:05:59.017Z,86.49
2022-12-26T17:08:28.266Z,86.08
2022-12-26T17:10:58.564Z,86.15
2022-12-26T17:13:28.367Z,86.30
2022-12-26T17:15:59.894Z,86.00
2022-12-26T17:18:52.901Z,86.39
2022-12-26T17:21:33.127Z,86.45
2022-12-26T17:24:11.430Z,86.50
2022-12-26T17:26:42.852Z,86.91
2022-12-26T17:29:41.182Z,86.59
2022-12-26T17:32:12.088Z,86.56
2022-12-26T17:34:42.011Z,86.46
2022-12-26T17:37:22.999Z,87.06
2022-12-26T17:40:00.824Z,87.39
2022-12-26T17:42:26.128Z,87.49
2022-12-26T17:44:56.874Z,87.45
2022-12-26T17:47:31.356Z,87.64
2022-12-26T17:50:00.861Z,87.48
2022-12-26T17:52:31.455Z,87.70
2022-12-26T17:55:01.849Z,88.14
2022-12-26T17:57:31.332Z,88.49
2022-12-26T18:00:00.946Z,88.76
2022-12-26T18:02:32.058Z,89.11
2022-12-26T18:05:01.401Z,89.46
2022-12-26T18:07:31.883Z,89.26
2022-12-26T18:10:02.049Z,89.55
2022-12-26T18:12:31.411Z,89.49
2022-12-26T18:15:02.379Z,89.76
2022-12-26T18:17:33.546Z,89.32
2022-12-26T18:20:04.209Z,89.16
2022-12-26T18:22:33.777Z,88.72
2022-12-26T18:25:03.278Z,88.33
2022-12-26T18:27:34.058Z,88.70
2022-12-26T18:30:03.386Z,89.49
2022-12-26T18:32:34.414Z,89.06
2022-12-26T18:35:03.761Z,88.89
2022-12-26T18:37:33.823Z,88.13
2022-12-26T18:40:03.333Z,88.21
2022-12-26T18:42:32.713Z,87.71
2022-12-26T18:45:01.933Z,87.03
2022-12-26T18:47:31.607Z,87.01
2022-12-26T18:50:00.826Z,86.58
2022-12-26T18:52:30.588Z,86.07
2022-12-26T18:54:59.818Z,86.62
2022-12-26T18:57:29.126Z,86.10
2022-12-26T18:59:58.362Z,85.52
2022-12-26T19:02:27.902Z,85.17
2022-12-26T19:04:57.382Z,84.01
2022-12-26T19:07:26.936Z,83.58
2022-12-26T19:09:57.991Z,83.64
2022-12-26T19:12:27.275Z,83.51
2022-12-26T19:14:56.599Z,83.32
2022-12-26T19:17:26.289Z,83.29
2022-12-26T19:19:55.902Z,83.40
2022-12-26T19:22:25.196Z,83.04
2022-12-26T19:24:55.466Z,82.46
2022-12-26T19:27:25.112Z,82.92
2022-12-26T19:29:54.752Z,81.79
2022-12-26T19:32:24.400Z,81.61
2022-12-26T19:34:55.604Z,80.98
2022-12-26T19:37:25.146Z,81.02
2022-12-26T19:39:54.677Z,81.75
2022-12-26T19:42:23.943Z,81.17
2022-12-26T19:44:53.209Z,81.87
2022-12-26T19:47:22.477Z,81.82
2022-12-26T19:49:51.996Z,81.57
2022-12-26T19:52:21.216Z,81.38
2022-12-26T19:54:50.841Z,80.71
2022-12-26T19:57:21.907Z,80.60
2022-12-26T19:59:52.039Z,81.83
2022-12-26T20:02:21.623Z,82.17
2022-12-26T20:04:51.412Z,82.28
2022-12-26T20:07:20.606Z,81.90
2022-12-26T20:09:50.072Z,81.62
2022-12-26T20:12:19.404Z,81.93
2022-12-26T20:14:49.012Z,82.00
2022-12-26T20:17:18.836Z,82.40
2022-12-26T20:19:48.427Z,82.03
2022-12-26T20:22:18.123Z,82.89
2022-12-26T20:24:47.985Z,82.02
2022-12-26T20:27:17.925Z,82.65
2022-12-26T20:29:47.386Z,83.31
2022-12-26T20:32:16.875Z,83.75
2022-12-26T20:34:46.304Z,84.40
2022-12-26T20:37:15.623Z,84.26
2022-12-26T20:39:45.578Z,83.97
2022-12-26T20:42:16.423Z,84.90
2022-12-26T20:44:46.247Z,85.39
2022-12-26T20:47:15.779Z,85.71
2022-12-26T20:49:45.198Z,85.97
2022-12-26T20:52:14.606Z,86.18
2022-12-26T20:54:44.146Z,85.96
2022-12-26T20:57:13.806Z,85.92
2022-12-26T20:59:43.366Z,86.20
2022-12-26T21:02:16.097Z,85.80
2022-12-26T21:04:45.763Z,86.17
2022-12-26T21:07:15.115Z,85.74
2022-12-26T21:09:46.542Z,86.19
2022-12-26T21:12:15.661Z,86.20
2022-12-26T21:14:45.022Z,86.33
2022-12-26T21:17:16.502Z,86.07
2022-12-26T21:19:46.448Z,86.43
2022-12-26T21:22:16.002Z,86.87
2022-12-26T21:24:45.735Z,86.56
2022-12-26T21:27:15.506Z,86.57
2022-12-26T21:29:45.046Z,86.04
2022-12-26T21:32:14.303Z,85.95
2022-12-26T21:34:43.539Z,86.10
2022-12-26T21:37:30.999Z,86.36
2022-12-26T21:40:00.555Z,86.74
2022-12-26T21:42:29.792Z,86.52
2022-12-26T21:44:59.025Z,86.35
2022-12-26T21:47:28.329Z,86.07
2022-12-26T21:49:57.995Z,86.25
2022-12-26T21:52:27.362Z,86.46
2022-12-26T21:55:14.441Z,86.18
2022-12-26T21:57:43.668Z,86.50
2022-12-26T22:00:13.566Z,86.41
2022-12-26T22:03:01.161Z,86.85
2022-12-26T22:05:31.572Z,87.10
2022-12-26T22:08:02.705Z,87.08
2022-12-26T22:10:51.873Z,87.16
2022-12-26T22:13:22.999Z,86.90
2022-12-26T22:16:04.208Z,87.03
2022-12-26T22:18:42.027Z,86.86
2022-12-26T22:21:17.046Z,87.11
2022-12-26T22:23:46.875Z,87.93
2022-12-26T22:26:16.639Z,87.65
2022-12-26T22:28:45.994Z,87.47
2022-12-26T22:31:26.968Z,87.87
2022-12-26T22:34:04.348Z,88.01
2022-12-26T22:36:36.015Z,87.80
2022-12-26T22:39:05.989Z,87.73
2022-12-26T22:41:35.879Z,87.75
2022-12-26T22:44:05.297Z,88.01
2022-12-26T22:46:34.582Z,88.44
2022-12-26T22:49:03.955Z,88.13
2022-12-26T22:51:33.553Z,88.37
2022-12-26T22:54:03.035Z,88.10
2022-12-26T22:56:32.285Z,88.09
2022-12-26T22:59:02.951Z,87.83
2022-12-26T23:01:34.162Z,88.20
2022-12-26T23:04:04.774Z,88.22
2022-12-26T23:06:35.963Z,88.22
2022-12-26T23:09:07.225Z,88.34
2022-12-26T23:11:37.380Z,88.81
2022-12-26T23:14:08.287Z,88.79
2022-12-26T23:16:47.857Z,89.02
2022-12-26T23:19:41.190Z,89.38
2022-12-26T23:22:10.913Z,89.53
2022-12-26T23:24:40.398Z,89.79
2022-12-26T23:27:29.300Z,89.86
2022-12-26T23:30:17.144Z,89.50
2022-12-26T23:32:50.521Z,89.43
2022-12-26T23:35:20.919Z,89.66
2022-12-26T23:37:50.407Z,89.96
2022-12-26T23:40:20.348Z,90.17
2022-12-26T23:42:50.054Z,90.55
2022-12-26T23:45:19.314Z,90.65
2022-12-26T23:47:48.557Z,90.74
2022-12-26T23:50:18.209Z,90.98
2022-12-26T23:52:47.757Z,91.20
2022-12-26T23:55:17.007Z,91.37
2022-12-26T23:57:46.254Z,91.54
